Time;durP1;ratioP1;P1;durP2;ratioP2;P2;SDS_P1;SDS_P2;PMS_P1;PMS_P2;Temp;Humidity;BMP_temperature;BMP_pressure;BME280_temperature;BME280_humidity;BME280_pressure;Samples;Min_cycle;Max_cycle;Signal;HPM_P1;HPM_P2
2023/04/17 00:01:22;;;;;;;;;;;10.50;99.90;;;;;;4988854;28;20466;-62
2023/04/17 00:03:47;;;;;;;;;;;10.50;99.90;;;;;;4992053;28;19914;-60
2023/04/17 00:06:13;;;;;;;;;;;10.50;99.90;;;;;;4989461;28;19922;-59
2023/04/17 00:08:39;;;;;;;;;;;10.50;99.90;;;;;;4988247;28;20004;-63
2023/04/17 00:11:05;;;;;;;;;;;10.50;99.90;;;;;;4990392;28;19925;-62
2023/04/17 00:13:30;;;;;;;;;;;10.50;99.90;;;;;;4987860;28;20385;-61
2023/04/17 00:15:55;;;;;;;;;;;10.50;99.90;;;;;;4990084;28;19948;-62
2023/04/17 00:18:21;;;;;;;;;;;10.50;99.90;;;;;;4986157;28;20360;-63
2023/04/17 00:20:46;;;;;;;;;;;10.50;99.90;;;;;;4989308;28;20384;-60
2023/04/17 00:23:12;;;;;;;;;;;10.50;99.90;;;;;;4987881;28;19968;-63
2023/04/17 00:25:37;;;;;;;;;;;10.50;99.90;;;;;;4987156;28;20000;-64
2023/04/17 00:28:03;;;;;;;;;;;10.50;99.90;;;;;;4984440;28;19926;-64
2023/04/17 00:30:28;;;;;;;;;;;10.40;99.90;;;;;;4987294;28;19924;-59
2023/04/17 00:32:53;;;;;;;;;;;10.40;99.90;;;;;;4988949;28;19985;-63
2023/04/17 00:35:19;;;;;;;;;;;10.40;99.90;;;;;;4988223;28;19921;-60
2023/04/17 00:37:44;;;;;;;;;;;10.40;99.90;;;;;;4988512;28;20001;-61
2023/04/17 00:40:10;;;;;;;;;;;10.40;99.90;;;;;;4986575;28;19933;-62
2023/04/17 00:42:35;;;;;;;;;;;10.40;99.90;;;;;;4985664;28;20650;-62
2023/04/17 00:45:03;;;;;;;;;;;10.40;99.90;;;;;;4992738;28;20009;-60
2023/04/17 00:47:28;;;;;;;;;;;10.40;99.90;;;;;;4988765;28;19922;-60
2023/04/17 00:49:54;;;;;;;;;;;10.40;99.90;;;;;;4987452;28;19938;-59
2023/04/17 00:52:26;;;;;;;;;;;10.40;99.90;;;;;;4985212;28;20289;-60
2023/04/17 00:54:52;;;;;;;;;;;10.40;99.90;;;;;;5000321;28;19980;-61
2023/04/17 00:57:17;;;;;;;;;;;10.40;99.90;;;;;;4992394;28;19914;-59
2023/04/17 00:59:43;;;;;;;;;;;10.40;99.90;;;;;;4989679;28;19924;-61
2023/04/17 01:02:08;;;;;;;;;;;10.40;99.90;;;;;;4986713;28;19913;-61
2023/04/17 01:04:34;;;;;;;;;;;10.40;99.90;;;;;;4989052;28;20303;-60
2023/04/17 01:06:59;;;;;;;;;;;10.40;99.90;;;;;;4994829;28;19957;-59
2023/04/17 01:09:25;;;;;;;;;;;10.40;99.90;;;;;;4986538;28;19933;-60
2023/04/17 01:11:51;;;;;;;;;;;10.40;99.90;;;;;;4987956;28;19920;-60
2023/04/17 01:14:16;;;;;;;;;;;10.40;99.90;;;;;;4985095;28;19921;-59
2023/04/17 01:16:43;;;;;;;;;;;10.40;99.90;;;;;;4989713;28;19918;-60
2023/04/17 01:19:09;;;;;;;;;;;10.40;99.90;;;;;;4984237;28;20004;-60
2023/04/17 01:21:34;;;;;;;;;;;10.40;99.90;;;;;;4989711;28;20390;-60
2023/04/17 01:24:03;;;;;;;;;;;10.40;99.90;;;;;;4990897;28;20104;-60
2023/04/17 01:26:29;;;;;;;;;;;10.40;99.90;;;;;;4990718;28;19968;-59
2023/04/17 01:28:56;;;;;;;;;;;10.40;99.90;;;;;;4990502;28;20024;-68
2023/04/17 01:31:22;;;;;;;;;;;10.40;99.90;;;;;;4989956;28;20000;-62
2023/04/17 01:33:48;;;;;;;;;;;10.50;99.90;;;;;;4996742;28;20016;-62
2023/04/17 01:36:14;;;;;;;;;;;10.50;99.90;;;;;;4991954;28;20301;-63
2023/04/17 01:38:39;;;;;;;;;;;10.50;99.90;;;;;;4990371;28;20013;-61
2023/04/17 01:41:08;;;;;;;;;;;10.50;99.90;;;;;;4990580;28;19992;-63
2023/04/17 01:43:43;;;;;;;;;;;10.50;99.90;;;;;;4991679;28;20029;-63
2023/04/17 01:46:09;;;;;;;;;;;10.50;99.90;;;;;;4989134;28;20327;-62
2023/04/17 01:48:35;;;;;;;;;;;10.50;99.90;;;;;;4990896;28;20028;-66
2023/04/17 01:51:00;;;;;;;;;;;10.50;99.90;;;;;;4992442;28;19917;-62
2023/04/17 01:53:26;;;;;;;;;;;10.50;99.90;;;;;;4990530;28;19918;-60
2023/04/17 01:55:52;;;;;;;;;;;10.50;99.90;;;;;;4986219;28;19932;-60
2023/04/17 01:58:17;;;;;;;;;;;10.50;99.90;;;;;;4990190;28;19956;-60
2023/04/17 02:00:46;;;;;;;;;;;10.40;99.90;;;;;;4993462;28;20395;-63
2023/04/17 02:03:11;;;;;;;;;;;10.40;99.90;;;;;;4989566;28;19913;-62
2023/04/17 02:05:37;;;;;;;;;;;10.40;99.90;;;;;;4993987;28;19939;-60
2023/04/17 02:08:02;;;;;;;;;;;10.40;99.90;;;;;;4992916;28;20136;-60
2023/04/17 02:10:28;;;;;;;;;;;10.50;99.90;;;;;;4987086;28;19914;-62
2023/04/17 02:12:54;;;;;;;;;;;10.50;99.90;;;;;;4990951;28;19913;-62
2023/04/17 02:15:19;;;;;;;;;;;10.50;99.90;;;;;;4991097;28;20336;-62
2023/04/17 02:17:45;;;;;;;;;;;10.50;99.90;;;;;;4991581;28;20343;-62
2023/04/17 02:20:11;;;;;;;;;;;10.50;99.90;;;;;;4991765;28;19921;-62
2023/04/17 02:22:36;;;;;;;;;;;10.50;99.90;;;;;;4991054;28;20304;-62
2023/04/17 02:25:02;;;;;;;;;;;10.50;99.90;;;;;;4991226;28;19968;-63
2023/04/17 02:27:28;;;;;;;;;;;10.50;99.90;;;;;;4991868;28;19968;-61
2023/04/17 02:29:54;;;;;;;;;;;10.50;99.90;;;;;;4990207;28;19913;-63
2023/04/17 02:32:20;;;;;;;;;;;10.50;99.90;;;;;;4988915;28;20372;-58
2023/04/17 02:34:45;;;;;;;;;;;10.50;99.90;;;;;;4991749;28;19914;-62
2023/04/17 02:37:11;;;;;;;;;;;10.50;99.90;;;;;;4991803;28;19984;-62
2023/04/17 02:39:36;;;;;;;;;;;10.50;99.90;;;;;;4989192;28;19953;-57
2023/04/17 02:42:02;;;;;;;;;;;10.50;99.90;;;;;;4988909;28;20296;-61
2023/04/17 02:44:27;;;;;;;;;;;10.40;99.90;;;;;;4988935;28;19914;-62
2023/04/17 02:46:53;;;;;;;;;;;10.40;99.90;;;;;;4990202;28;20388;-61
2023/04/17 02:49:18;;;;;;;;;;;10.40;99.90;;;;;;4988626;28;20334;-60
2023/04/17 02:51:44;;;;;;;;;;;10.40;99.90;;;;;;4990328;28;19932;-62
2023/04/17 02:54:09;;;;;;;;;;;10.40;99.90;;;;;;4993769;28;19929;-61
2023/04/17 02:56:35;;;;;;;;;;;10.40;99.90;;;;;;4992703;28;19918;-62
2023/04/17 02:59:00;;;;;;;;;;;10.40;99.90;;;;;;4989451;28;20016;-63
2023/04/17 03:01:26;;;;;;;;;;;10.40;99.90;;;;;;4990225;28;19929;-62
2023/04/17 03:03:52;;;;;;;;;;;10.40;99.90;;;;;;4994674;28;19914;-60
2023/04/17 03:06:17;;;;;;;;;;;10.40;99.90;;;;;;4990086;28;19917;-59
2023/04/17 03:08:43;;;;;;;;;;;10.40;99.90;;;;;;4993031;28;20406;-62
2023/04/17 03:11:08;;;;;;;;;;;10.40;99.90;;;;;;4989143;28;19929;-59
2023/04/17 03:13:36;;;;;;;;;;;10.40;99.90;;;;;;4988828;28;19913;-65
2023/04/17 03:16:03;;;;;;;;;;;10.50;99.90;;;;;;4988929;28;19914;-61
2023/04/17 03:18:29;;;;;;;;;;;10.50;99.90;;;;;;4990125;28;19976;-58
2023/04/17 03:20:55;;;;;;;;;;;10.40;99.90;;;;;;4986965;28;20021;-60
2023/04/17 03:23:20;;;;;;;;;;;10.50;99.90;;;;;;4990599;28;19952;-60
2023/04/17 03:25:45;;;;;;;;;;;10.50;99.90;;;;;;4990129;28;20431;-61
2023/04/17 03:28:11;;;;;;;;;;;10.40;99.90;;;;;;4985879;28;19921;-63
2023/04/17 03:30:36;;;;;;;;;;;10.40;99.90;;;;;;4991342;28;19921;-61
2023/04/17 03:33:02;;;;;;;;;;;10.40;99.90;;;;;;4987843;28;19921;-63
2023/04/17 03:35:27;;;;;;;;;;;10.40;99.90;;;;;;4986751;28;19918;-60
2023/04/17 03:37:53;;;;;;;;;;;10.40;99.90;;;;;;4989615;28;20395;-62
2023/04/17 03:40:18;;;;;;;;;;;10.40;99.90;;;;;;4989938;28;19940;-60
2023/04/17 03:42:44;;;;;;;;;;;10.40;99.90;;;;;;4991674;28;19914;-62
2023/04/17 03:45:09;;;;;;;;;;;10.40;99.90;;;;;;4982668;28;20288;-64
2023/04/17 03:47:35;;;;;;;;;;;10.40;99.90;;;;;;4989965;28;19922;-61
2023/04/17 03:50:00;;;;;;;;;;;10.40;99.90;;;;;;4989742;28;19921;-62
2023/04/17 03:52:25;;;;;;;;;;;10.40;99.90;;;;;;4990038;28;20372;-62
2023/04/17 03:54:51;;;;;;;;;;;10.40;99.90;;;;;;4988073;28;20277;-63
2023/04/17 03:57:16;;;;;;;;;;;10.40;99.90;;;;;;4990552;28;19948;-59
2023/04/17 03:59:42;;;;;;;;;;;10.40;99.90;;;;;;4989348;28;19922;-60
2023/04/17 04:02:07;;;;;;;;;;;10.40;99.90;;;;;;4988805;28;20401;-65
2023/04/17 04:04:33;;;;;;;;;;;10.40;99.90;;;;;;4990388;28;19928;-61
2023/04/17 04:07:00;;;;;;;;;;;10.40;99.90;;;;;;4993907;28;19917;-62
2023/04/17 04:09:26;;;;;;;;;;;10.40;99.90;;;;;;4990830;28;19918;-59
2023/04/17 04:11:51;;;;;;;;;;;10.40;99.90;;;;;;4992037;28;19941;-60
2023/04/17 04:14:17;;;;;;;;;;;10.40;99.90;;;;;;4988872;28;19914;-62
2023/04/17 04:16:42;;;;;;;;;;;10.40;99.90;;;;;;4990630;28;19967;-59
2023/04/17 04:19:07;;;;;;;;;;;10.40;99.90;;;;;;4992166;28;19913;-62
2023/04/17 04:21:33;;;;;;;;;;;10.40;99.90;;;;;;4988225;28;19960;-61
2023/04/17 04:23:58;;;;;;;;;;;10.40;99.90;;;;;;4994410;28;19914;-62
2023/04/17 04:26:24;;;;;;;;;;;10.40;99.90;;;;;;4989153;28;19984;-62
2023/04/17 04:28:49;;;;;;;;;;;10.40;99.90;;;;;;4985696;28;19925;-65
2023/04/17 04:31:17;;;;;;;;;;;10.40;99.90;;;;;;4988333;28;19917;-62
2023/04/17 04:33:43;;;;;;;;;;;10.50;99.90;;;;;;4988304;28;19993;-61
2023/04/17 04:36:12;;;;;;;;;;;10.40;99.90;;;;;;4985127;28;20550;-63
2023/04/17 04:38:38;;;;;;;;;;;10.40;99.90;;;;;;4986679;28;19913;-61
2023/04/17 04:41:09;;;;;;;;;;;10.40;99.90;;;;;;4987994;28;19960;-59
2023/04/17 04:43:35;;;;;;;;;;;10.40;99.90;;;;;;4985123;28;19924;-61
2023/04/17 04:46:00;;;;;;;;;;;10.50;99.90;;;;;;4987988;28;19913;-59
2023/04/17 04:48:26;;;;;;;;;;;10.50;99.90;;;;;;4986549;28;19961;-59
2023/04/17 04:50:51;;;;;;;;;;;10.50;99.90;;;;;;4985366;28;19917;-61
2023/04/17 04:53:17;;;;;;;;;;;10.50;99.90;;;;;;4987603;28;19992;-62
2023/04/17 04:55:43;;;;;;;;;;;10.40;99.90;;;;;;4986769;28;19925;-61
2023/04/17 04:58:08;;;;;;;;;;;10.40;99.90;;;;;;4993784;28;20009;-58
2023/04/17 05:00:33;;;;;;;;;;;10.40;99.90;;;;;;4989616;28;19956;-62
2023/04/17 05:02:59;;;;;;;;;;;10.40;99.90;;;;;;4991057;28;19924;-63
2023/04/17 05:05:24;;;;;;;;;;;10.40;99.90;;;;;;4984629;28;20403;-63
2023/04/17 05:07:52;;;;;;;;;;;10.40;99.90;;;;;;4987999;28;19930;-62
2023/04/17 05:10:17;;;;;;;;;;;10.40;99.90;;;;;;4988456;28;20331;-62
2023/04/17 05:12:43;;;;;;;;;;;10.40;99.90;;;;;;4990916;28;19918;-62
2023/04/17 05:15:09;;;;;;;;;;;10.40;99.90;;;;;;4988488;28;19910;-61
2023/04/17 05:17:35;;;;;;;;;;;10.50;99.90;;;;;;4993203;28;19921;-63
2023/04/17 05:20:00;;;;;;;;;;;10.50;99.90;;;;;;4990979;28;19918;-62
2023/04/17 05:22:26;;;;;;;;;;;10.50;99.90;;;;;;4990775;28;21458;-62
2023/04/17 05:24:51;;;;;;;;;;;10.50;99.90;;;;;;4991528;28;20049;-62
2023/04/17 05:27:17;;;;;;;;;;;10.40;99.90;;;;;;4992570;28;19921;-62
2023/04/17 05:29:42;;;;;;;;;;;10.40;99.90;;;;;;4988988;28;19964;-62
2023/04/17 05:32:08;;;;;;;;;;;10.40;99.90;;;;;;4989907;28;19968;-62
2023/04/17 05:34:33;;;;;;;;;;;10.50;99.90;;;;;;4993223;28;20261;-62
2023/04/17 05:36:59;;;;;;;;;;;10.50;99.90;;;;;;4992688;28;19921;-62
2023/04/17 05:39:24;;;;;;;;;;;10.50;99.90;;;;;;4993494;28;19918;-63
2023/04/17 05:41:50;;;;;;;;;;;10.50;99.90;;;;;;4993210;28;20007;-63
2023/04/17 05:44:15;;;;;;;;;;;10.50;99.90;;;;;;4994819;28;19910;-63
2023/04/17 05:46:40;;;;;;;;;;;10.50;99.90;;;;;;4990760;28;19918;-62
2023/04/17 05:49:06;;;;;;;;;;;10.50;99.90;;;;;;4992149;28;19953;-62
2023/04/17 05:51:31;;;;;;;;;;;10.50;99.90;;;;;;4992816;28;19945;-64
2023/04/17 05:53:57;;;;;;;;;;;10.60;99.90;;;;;;4990335;28;19980;-62
2023/04/17 05:56:22;;;;;;;;;;;10.60;99.90;;;;;;4987838;28;20368;-63
2023/04/17 05:58:48;;;;;;;;;;;10.60;99.90;;;;;;4989910;28;20303;-62
2023/04/17 06:01:16;;;;;;;;;;;10.60;99.90;;;;;;4991269;28;19953;-63
2023/04/17 06:03:41;;;;;;;;;;;10.60;99.90;;;;;;4995512;28;19914;-63
2023/04/17 06:06:07;;;;;;;;;;;10.60;99.90;;;;;;4991382;28;20386;-63
2023/04/17 06:08:32;;;;;;;;;;;10.60;99.90;;;;;;4990346;28;20370;-63
2023/04/17 06:10:58;;;;;;;;;;;10.60;99.90;;;;;;4991917;28;19915;-63
2023/04/17 06:13:23;;;;;;;;;;;10.60;99.90;;;;;;4990975;28;19949;-63
2023/04/17 06:15:49;;;;;;;;;;;10.70;99.90;;;;;;4988679;28;20008;-63
2023/04/17 06:18:16;;;;;;;;;;;10.60;99.90;;;;;;4990099;28;20308;-63
2023/04/17 06:20:42;;;;;;;;;;;10.80;99.90;;;;;;4992444;28;19913;-63
2023/04/17 06:23:07;;;;;;;;;;;10.80;99.90;;;;;;4991488;28;19933;-61
2023/04/17 06:25:33;;;;;;;;;;;10.90;99.90;;;;;;4988036;28;20400;-62
2023/04/17 06:27:58;;;;;;;;;;;10.90;99.90;;;;;;4989679;28;19996;-64
2023/04/17 06:30:24;;;;;;;;;;;10.90;99.90;;;;;;4989858;28;19926;-63
2023/04/17 06:32:49;;;;;;;;;;;10.90;99.90;;;;;;4991431;28;19910;-63
2023/04/17 06:35:15;;;;;;;;;;;10.90;99.90;;;;;;4989721;28;19941;-62
2023/04/17 06:37:40;;;;;;;;;;;10.90;99.90;;;;;;4989032;28;19921;-63
2023/04/17 06:40:06;;;;;;;;;;;10.90;99.90;;;;;;4990637;28;19925;-62
2023/04/17 06:42:34;;;;;;;;;;;10.90;99.90;;;;;;4987650;28;19917;-63
2023/04/17 06:45:00;;;;;;;;;;;10.80;99.90;;;;;;4991648;28;20008;-62
2023/04/17 06:47:25;;;;;;;;;;;10.80;99.90;;;;;;4990515;28;19922;-63
2023/04/17 06:49:51;;;;;;;;;;;10.80;99.90;;;;;;4991630;28;19960;-63
2023/04/17 06:52:19;;;;;;;;;;;10.80;99.90;;;;;;4983535;28;20048;-63
2023/04/17 06:54:44;;;;;;;;;;;10.80;99.90;;;;;;4982927;28;19917;-64
2023/04/17 06:57:10;;;;;;;;;;;10.80;99.90;;;;;;4987484;28;19909;-64
2023/04/17 06:59:37;;;;;;;;;;;10.70;99.90;;;;;;4988403;28;19910;-63
2023/04/17 07:02:02;;;;;;;;;;;10.70;99.90;;;;;;4987180;28;20073;-63
2023/04/17 07:04:29;;;;;;;;;;;10.80;99.90;;;;;;4991810;28;20404;-63
2023/04/17 07:06:54;;;;;;;;;;;10.90;99.90;;;;;;4991776;28;19913;-64
2023/04/17 07:09:20;;;;;;;;;;;10.90;99.90;;;;;;4990294;28;20372;-63
2023/04/17 07:11:45;;;;;;;;;;;10.90;99.90;;;;;;4988787;28;19910;-63
2023/04/17 07:14:11;;;;;;;;;;;11.00;99.90;;;;;;4989786;28;19924;-63
2023/04/17 07:16:36;;;;;;;;;;;10.90;99.90;;;;;;4992129;28;19917;-63
2023/04/17 07:19:02;;;;;;;;;;;10.90;99.90;;;;;;4989152;28;21625;-64
2023/04/17 07:21:27;;;;;;;;;;;10.90;99.90;;;;;;4989654;28;19909;-63
2023/04/17 07:23:53;;;;;;;;;;;11.00;99.90;;;;;;4985691;28;19968;-62
2023/04/17 07:26:18;;;;;;;;;;;11.10;99.90;;;;;;4992197;28;19932;-63
2023/04/17 07:28:44;;;;;;;;;;;11.10;99.90;;;;;;4990937;28;19918;-64
2023/04/17 07:31:10;;;;;;;;;;;11.00;99.90;;;;;;4989577;28;20017;-63
2023/04/17 07:33:35;;;;;;;;;;;11.00;99.90;;;;;;4994097;28;19953;-64
2023/04/17 07:36:02;;;;;;;;;;;11.00;99.90;;;;;;4991868;28;19916;-64
2023/04/17 07:38:27;;;;;;;;;;;11.00;99.90;;;;;;4987618;28;19906;-64
2023/04/17 07:40:52;;;;;;;;;;;11.00;99.90;;;;;;4985788;28;19916;-63
2023/04/17 07:43:18;;;;;;;;;;;11.00;99.90;;;;;;4993398;28;19909;-63
2023/04/17 07:45:43;;;;;;;;;;;11.00;99.90;;;;;;4989834;28;19926;-64
2023/04/17 07:48:09;;;;;;;;;;;11.10;99.90;;;;;;4998375;28;19914;-64
2023/04/17 07:50:35;;;;;;;;;;;11.20;99.90;;;;;;4989826;28;19921;-64
2023/04/17 07:53:00;;;;;;;;;;;11.20;99.90;;;;;;4991724;28;19905;-64
2023/04/17 07:55:26;;;;;;;;;;;11.20;99.90;;;;;;4989340;28;19918;-63
2023/04/17 07:57:51;;;;;;;;;;;11.20;99.90;;;;;;5004391;28;20352;-63
2023/04/17 08:00:18;;;;;;;;;;;11.20;99.90;;;;;;4990654;28;19914;-64
2023/04/17 08:02:43;;;;;;;;;;;11.10;99.90;;;;;;4990491;28;19914;-63
2023/04/17 08:05:09;;;;;;;;;;;11.20;99.90;;;;;;4990843;28;19919;-64
2023/04/17 08:07:35;;;;;;;;;;;11.30;99.90;;;;;;4992878;28;20466;-64
2023/04/17 08:10:01;;;;;;;;;;;11.30;99.90;;;;;;4987782;28;19985;-64
2023/04/17 08:12:26;;;;;;;;;;;11.30;99.90;;;;;;4984546;28;20360;-63
2023/04/17 08:14:51;;;;;;;;;;;11.30;99.90;;;;;;4988064;28;20000;-63
2023/04/17 08:17:21;;;;;;;;;;;11.20;99.90;;;;;;4990236;28;20398;-64
2023/04/17 08:19:49;;;;;;;;;;;11.20;99.90;;;;;;4987668;28;19909;-64
2023/04/17 08:22:15;;;;;;;;;;;11.30;99.90;;;;;;4990642;28;19918;-64
2023/04/17 08:24:41;;;;;;;;;;;11.30;99.90;;;;;;4991088;28;20055;-62
2023/04/17 08:27:06;;;;;;;;;;;11.40;99.90;;;;;;4990938;28;19916;-63
2023/04/17 08:29:32;;;;;;;;;;;11.50;99.90;;;;;;4989234;28;19914;-63
2023/04/17 08:31:57;;;;;;;;;;;11.50;99.90;;;;;;4992931;28;19984;-64
2023/04/17 08:34:23;;;;;;;;;;;11.60;99.90;;;;;;4988190;28;19933;-64
2023/04/17 08:36:48;;;;;;;;;;;11.70;99.90;;;;;;4993360;28;20379;-63
2023/04/17 08:39:15;;;;;;;;;;;11.80;99.90;;;;;;4986427;28;19922;-65
2023/04/17 08:41:49;;;;;;;;;;;12.00;99.90;;;;;;4986614;28;19922;-63
2023/04/17 08:44:18;;;;;;;;;;;12.10;99.90;;;;;;4988884;28;20064;-63
2023/04/17 08:46:44;;;;;;;;;;;12.20;99.90;;;;;;4990717;28;20011;-62
2023/04/17 08:49:09;;;;;;;;;;;12.50;99.90;;;;;;4990189;28;19913;-60
2023/04/17 08:51:35;;;;;;;;;;;12.70;99.90;;;;;;4986219;28;19932;-64
2023/04/17 08:54:00;;;;;;;;;;;12.80;99.90;;;;;;4991199;28;19912;-63
2023/04/17 08:56:27;;;;;;;;;;;12.90;99.90;;;;;;4989612;28;20406;-63
2023/04/17 08:58:52;;;;;;;;;;;12.90;99.90;;;;;;4991140;28;19906;-63
2023/04/17 09:01:19;;;;;;;;;;;12.90;99.90;;;;;;5005789;28;19913;-63
2023/04/17 09:03:45;;;;;;;;;;;12.80;99.90;;;;;;4989167;28;19964;-63
2023/04/17 09:06:11;;;;;;;;;;;12.80;99.90;;;;;;4990438;28;20004;-64
2023/04/17 09:08:37;;;;;;;;;;;12.80;99.90;;;;;;4988498;28;19921;-64
2023/04/17 09:11:03;;;;;;;;;;;12.70;99.90;;;;;;4986871;28;19909;-64
2023/04/17 09:13:37;;;;;;;;;;;12.70;99.90;;;;;;4989542;28;19949;-63
2023/04/17 09:16:09;;;;;;;;;;;12.80;99.90;;;;;;4983990;28;19910;-63
2023/04/17 09:18:36;;;;;;;;;;;12.80;99.90;;;;;;4986906;28;19922;-64
2023/04/17 09:21:02;;;;;;;;;;;12.90;99.90;;;;;;4984688;28;20327;-63
2023/04/17 09:23:28;;;;;;;;;;;12.90;99.90;;;;;;4988051;28;19963;-63
2023/04/17 09:26:10;;;;;;;;;;;12.90;99.90;;;;;;4987768;28;19941;-64
2023/04/17 09:28:38;;;;;;;;;;;12.90;99.90;;;;;;4991320;28;19914;-63
2023/04/17 09:31:05;;;;;;;;;;;13.00;99.90;;;;;;4987866;28;20610;-63
2023/04/17 09:33:30;;;;;;;;;;;13.10;99.90;;;;;;4987445;28;20416;-63
2023/04/17 09:36:15;;;;;;;;;;;13.20;99.90;;;;;;4985104;28;20012;-62
2023/04/17 09:38:41;;;;;;;;;;;13.30;99.90;;;;;;4986816;28;19923;-63
2023/04/17 09:41:21;;;;;;;;;;;13.60;99.90;;;;;;4985127;28;19917;-61
2023/04/17 09:43:48;;;;;;;;;;;13.70;99.90;;;;;;4988795;28;19917;-64
2023/04/17 09:46:34;;;;;;;;;;;13.80;99.90;;;;;;4993119;28;19968;-63
2023/04/17 09:49:03;;;;;;;;;;;13.90;99.90;;;;;;4993076;28;19913;-63
2023/04/17 09:51:28;;;;;;;;;;;13.60;99.90;;;;;;4993201;28;20394;-63
2023/04/17 09:53:55;;;;;;;;;;;13.50;99.90;;;;;;4993501;28;19909;-62
2023/04/17 09:56:23;;;;;;;;;;;13.70;99.90;;;;;;4992249;28;19917;-63
2023/04/17 09:58:49;;;;;;;;;;;13.90;99.90;;;;;;4992562;28;20424;-63
2023/04/17 10:01:15;;;;;;;;;;;14.10;99.90;;;;;;4987828;28;20010;-63
2023/04/17 10:03:41;;;;;;;;;;;14.20;99.90;;;;;;4992714;28;19994;-64
2023/04/17 10:06:07;;;;;;;;;;;14.10;99.90;;;;;;4993747;28;19918;-61
2023/04/17 10:08:33;;;;;;;;;;;14.20;99.90;;;;;;4989697;28;19936;-64
2023/04/17 10:11:06;;;;;;;;;;;14.30;99.90;;;;;;4991856;28;19932;-63
2023/04/17 10:13:33;;;;;;;;;;;14.20;99.90;;;;;;4991220;28;19964;-64
2023/04/17 10:15:58;;;;;;;;;;;14.40;99.90;;;;;;4992050;28;19909;-63
2023/04/17 10:18:24;;;;;;;;;;;14.60;99.90;;;;;;4996190;28;19912;-64
2023/04/17 10:20:51;;;;;;;;;;;14.90;99.90;;;;;;4993118;28;20264;-64
2023/04/17 10:23:33;;;;;;;;;;;14.90;99.90;;;;;;4992224;28;19910;-63
2023/04/17 10:26:18;;;;;;;;;;;15.10;99.90;;;;;;4990088;28;19992;-64
2023/04/17 10:28:47;;;;;;;;;;;15.30;99.90;;;;;;4989853;28;20384;-63
2023/04/17 10:31:12;;;;;;;;;;;15.50;99.90;;;;;;5007927;28;19913;-63
2023/04/17 10:33:47;;;;;;;;;;;15.60;99.90;;;;;;4993181;28;19905;-62
2023/04/17 10:36:32;;;;;;;;;;;15.50;99.90;;;;;;4992154;28;19916;-64
2023/04/17 10:39:30;;;;;;;;;;;15.20;99.90;;;;;;4991938;28;19914;-64
2023/04/17 10:42:02;;;;;;;;;;;14.90;99.90;;;;;;4991745;28;20164;-64
2023/04/17 10:44:40;;;;;;;;;;;14.70;99.90;;;;;;4991001;28;19914;-64
2023/04/17 10:47:09;;;;;;;;;;;14.90;99.90;;;;;;5004464;28;20379;-63
2023/04/17 10:49:54;;;;;;;;;;;15.10;99.90;;;;;;4993265;28;19945;-63
2023/04/17 10:52:31;;;;;;;;;;;15.50;99.90;;;;;;5006880;28;19910;-63
2023/04/17 10:55:15;;;;;;;;;;;15.50;99.90;;;;;;4989331;28;20032;-65
2023/04/17 10:57:53;;;;;;;;;;;15.40;99.90;;;;;;4992751;28;19905;-64
2023/04/17 11:00:20;;;;;;;;;;;15.70;99.90;;;;;;4992503;28;20379;-64
2023/04/17 11:02:49;;;;;;;;;;;15.90;99.90;;;;;;4989686;28;19917;-64
2023/04/17 11:05:15;;;;;;;;;;;16.30;99.90;;;;;;4991352;28;19909;-64
2023/04/17 11:07:43;;;;;;;;;;;16.50;99.90;;;;;;4990733;28;19916;-64
2023/04/17 11:10:08;;;;;;;;;;;16.90;99.90;;;;;;4992410;28;19906;-62
2023/04/17 11:12:34;;;;;;;;;;;17.40;99.90;;;;;;4992444;28;19914;-64
2023/04/17 11:15:00;;;;;;;;;;;17.70;99.90;;;;;;4986301;28;19909;-64
2023/04/17 11:17:26;;;;;;;;;;;18.20;99.90;;;;;;4989084;28;20360;-64
2023/04/17 11:19:52;;;;;;;;;;;18.40;99.90;;;;;;5004469;28;19916;-64
2023/04/17 11:22:18;;;;;;;;;;;18.30;97.70;;;;;;4988757;28;19913;-64
2023/04/17 11:24:43;;;;;;;;;;;17.80;99.90;;;;;;4989674;28;19917;-64
2023/04/17 11:27:09;;;;;;;;;;;17.70;99.90;;;;;;4990846;28;19913;-64
2023/04/17 11:29:34;;;;;;;;;;;17.70;99.60;;;;;;4988624;28;19940;-64
2023/04/17 11:32:00;;;;;;;;;;;17.80;99.90;;;;;;4990569;28;19910;-63
2023/04/17 11:34:26;;;;;;;;;;;17.80;99.50;;;;;;4990365;28;20002;-64
2023/04/17 11:36:52;;;;;;;;;;;17.70;99.70;;;;;;4989368;28;19964;-64
2023/04/17 11:39:18;;;;;;;;;;;17.40;99.60;;;;;;5010073;28;20506;-64
2023/04/17 11:41:45;;;;;;;;;;;17.10;99.90;;;;;;4991039;28;19913;-64
2023/04/17 11:44:11;;;;;;;;;;;17.10;98.90;;;;;;4990278;28;20292;-63
2023/04/17 11:46:37;;;;;;;;;;;17.10;99.50;;;;;;4990344;28;19909;-64
2023/04/17 11:49:03;;;;;;;;;;;17.40;99.90;;;;;;4990534;28;19910;-64
2023/04/17 11:51:30;;;;;;;;;;;17.50;99.60;;;;;;4990503;28;20008;-63
2023/04/17 11:53:55;;;;;;;;;;;17.20;99.90;;;;;;4987049;28;19934;-65
2023/04/17 11:56:22;;;;;;;;;;;17.10;99.90;;;;;;4990690;28;20021;-64
2023/04/17 11:58:57;;;;;;;;;;;17.10;99.90;;;;;;4989676;28;19909;-63
2023/04/17 12:01:24;;;;;;;;;;;17.10;99.90;;;;;;4991112;28;19929;-63
2023/04/17 12:03:50;;;;;;;;;;;17.50;99.90;;;;;;4984245;28;19913;-64
2023/04/17 12:06:15;;;;;;;;;;;18.00;98.30;;;;;;4989086;28;19925;-64
2023/04/17 12:08:49;;;;;;;;;;;18.20;99.40;;;;;;5000594;28;19928;-65
2023/04/17 12:11:34;;;;;;;;;;;18.40;96.90;;;;;;4987753;28;20322;-63
2023/04/17 12:14:01;;;;;;;;;;;18.60;97.00;;;;;;4985512;28;19909;-64
2023/04/17 12:16:27;;;;;;;;;;;18.20;95.10;;;;;;4984766;28;19910;-64
2023/04/17 12:18:53;;;;;;;;;;;18.10;95.90;;;;;;4989565;28;19916;-64
2023/04/17 12:21:22;;;;;;;;;;;18.00;95.30;;;;;;4989059;28;19909;-64
2023/04/17 12:23:48;;;;;;;;;;;18.10;95.20;;;;;;4988436;28;19909;-64
2023/04/17 12:26:14;;;;;;;;;;;18.10;95.30;;;;;;4985979;28;20008;-64
2023/04/17 12:28:39;;;;;;;;;;;18.30;93.90;;;;;;4986336;28;20008;-64
2023/04/17 12:31:05;;;;;;;;;;;18.70;93.50;;;;;;4989019;28;20526;-64
2023/04/17 12:33:31;;;;;;;;;;;18.70;92.30;;;;;;4990870;28;19906;-64
2023/04/17 12:35:57;;;;;;;;;;;19.00;93.70;;;;;;4989172;28;20406;-64
2023/04/17 12:38:22;;;;;;;;;;;19.20;91.60;;;;;;4986495;28;19945;-65
2023/04/17 12:40:48;;;;;;;;;;;19.30;91.50;;;;;;4988375;28;19914;-64
2023/04/17 12:43:13;;;;;;;;;;;19.30;91.40;;;;;;4987389;28;20000;-64
2023/04/17 12:45:40;;;;;;;;;;;19.30;91.40;;;;;;4991010;28;19910;-64
2023/04/17 12:48:06;;;;;;;;;;;18.80;92.50;;;;;;4991232;28;19909;-64
2023/04/17 12:50:32;;;;;;;;;;;18.50;92.70;;;;;;4990058;28;19910;-64
2023/04/17 12:52:57;;;;;;;;;;;18.50;91.60;;;;;;4987291;28;19937;-64
2023/04/17 12:55:25;;;;;;;;;;;18.30;91.90;;;;;;4990430;28;19914;-63
2023/04/17 12:57:50;;;;;;;;;;;18.00;91.50;;;;;;4989928;28;19933;-63
2023/04/17 13:00:16;;;;;;;;;;;18.00;91.80;;;;;;4989138;28;19914;-65
2023/04/17 13:02:42;;;;;;;;;;;18.00;92.50;;;;;;4989745;28;19917;-63
2023/04/17 13:05:07;;;;;;;;;;;18.10;92.30;;;;;;4989622;28;19917;-64
2023/04/17 13:07:32;;;;;;;;;;;18.40;92.00;;;;;;4990922;28;19914;-64
2023/04/17 13:09:58;;;;;;;;;;;18.70;91.40;;;;;;4988964;28;19913;-64
2023/04/17 13:12:24;;;;;;;;;;;18.70;92.90;;;;;;4988329;28;19957;-64
2023/04/17 13:14:50;;;;;;;;;;;19.10;90.10;;;;;;4991802;28;19956;-64
2023/04/17 13:17:15;;;;;;;;;;;19.40;88.20;;;;;;4990609;28;19925;-65
2023/04/17 13:19:41;;;;;;;;;;;19.10;90.40;;;;;;4992493;28;20376;-64
2023/04/17 13:22:06;;;;;;;;;;;18.80;89.70;;;;;;4992689;28;20372;-63
2023/04/17 13:24:33;;;;;;;;;;;18.70;88.90;;;;;;4991056;28;19915;-64
2023/04/17 13:26:59;;;;;;;;;;;18.50;93.40;;;;;;4993481;28;19909;-64
2023/04/17 13:29:25;;;;;;;;;;;18.50;92.80;;;;;;4991294;28;20458;-64
2023/04/17 13:31:50;;;;;;;;;;;18.70;89.80;;;;;;4994410;28;20376;-64
2023/04/17 13:34:16;;;;;;;;;;;18.70;89.50;;;;;;4994096;28;19913;-62
2023/04/17 13:36:43;;;;;;;;;;;18.50;90.50;;;;;;4989741;28;20352;-64
2023/04/17 13:39:09;;;;;;;;;;;18.10;93.90;;;;;;4986484;28;19913;-63
2023/04/17 13:41:35;;;;;;;;;;;18.20;90.20;;;;;;4988940;28;20567;-64
2023/04/17 13:44:01;;;;;;;;;;;18.60;89.00;;;;;;4993378;28;20317;-63
2023/04/17 13:46:26;;;;;;;;;;;19.00;87.70;;;;;;4990870;28;20060;-64
2023/04/17 13:48:51;;;;;;;;;;;19.40;86.40;;;;;;4994882;28;19914;-65
2023/04/17 13:51:17;;;;;;;;;;;19.20;87.10;;;;;;4989948;28;19910;-64
2023/04/17 13:53:42;;;;;;;;;;;19.30;85.50;;;;;;4988569;28;19957;-64
2023/04/17 13:56:08;;;;;;;;;;;19.10;85.50;;;;;;4991716;28;19925;-63
2023/04/17 13:58:33;;;;;;;;;;;18.80;87.50;;;;;;4987566;28;20403;-64
2023/04/17 14:00:59;;;;;;;;;;;18.40;89.30;;;;;;4991505;28;19910;-64
2023/04/17 14:03:25;;;;;;;;;;;18.00;91.40;;;;;;4993869;28;19914;-66
2023/04/17 14:05:50;;;;;;;;;;;17.80;91.00;;;;;;4990087;28;19925;-64
2023/04/17 14:08:16;;;;;;;;;;;17.50;90.60;;;;;;4993721;28;19933;-63
2023/04/17 14:10:41;;;;;;;;;;;17.30;90.80;;;;;;4992153;28;19999;-63
2023/04/17 14:13:07;;;;;;;;;;;17.00;93.00;;;;;;4994051;28;20303;-64